Time;durP1;ratioP1;P1;durP2;ratioP2;P2;SDS_P1;SDS_P2;PMS_P1;PMS_P2;Temp;Humidity;BMP_temperature;BMP_pressure;BME280_temperature;BME280_humidity;BME280_pressure;Samples;Min_cycle;Max_cycle;Signal;HPM_P1;HPM_P2
2023/03/27 00:01:22;;;;;;;0.20;0.20;;;;;;;;;;4841803;29;20050;-77
2023/03/27 00:09:36;;;;;;;0.20;0.20;;;;;;;;;;4824917;29;20050;-77
2023/03/27 00:12:20;;;;;;;0.20;0.20;;;;;;;;;;4819496;29;20138;-77
2023/03/27 00:15:05;;;;;;;0.20;0.20;;;;;;;;;;4832781;29;20419;-78
2023/03/27 00:17:32;;;;;;;0.20;0.20;;;;;;;;;;4801961;29;20042;-78
2023/03/27 00:22:45;;;;;;;0.20;0.20;;;;;;;;;;4835002;23;20533;-78
2023/03/27 00:25:17;;;;;;;0.20;0.20;;;;;;;;;;4828946;29;20062;-78
2023/03/27 00:27:46;;;;;;;0.20;0.20;;;;;;;;;;4804488;29;20436;-77
2023/03/27 00:30:16;;;;;;;0.20;0.20;;;;;;;;;;4810939;29;20412;-78
2023/03/27 00:33:13;;;;;;;0.20;0.20;;;;;;;;;;4818804;29;20083;-77
2023/03/27 00:35:49;;;;;;;0.20;0.20;;;;;;;;;;4818203;29;20129;-78
2023/03/27 00:38:30;;;;;;;0.10;0.10;;;;;;;;;;4822732;29;20096;-78
2023/03/27 00:41:00;;;;;;;0.20;0.20;;;;;;;;;;4818303;29;20054;-78
2023/03/27 00:43:27;;;;;;;0.20;0.20;;;;;;;;;;4814049;29;20423;-78
2023/03/27 00:46:14;;;;;;;0.20;0.20;;;;;;;;;;4814584;29;20125;-77
2023/03/27 00:48:48;;;;;;;0.20;0.20;;;;;;;;;;4826896;29;20547;-77
2023/03/27 00:51:34;;;;;;;0.10;0.10;;;;;;;;;;4821454;29;20111;-78
2023/03/27 00:54:15;;;;;;;;;;;;;;;;;;;;;
2023/03/27 00:57:27;;;;;;;0.20;0.20;;;;;;;;;;4827365;29;20046;-77
2023/03/27 01:00:15;;;;;;;0.20;0.20;;;;;;;;;;4805097;29;20102;-79
2023/03/27 01:03:03;;;;;;;0.20;0.20;;;;;;;;;;4831226;29;20090;-77
2023/03/27 01:05:35;;;;;;;0.20;0.20;;;;;;;;;;4807693;29;20071;-76
2023/03/27 01:08:06;;;;;;;0.17;0.17;;;;;;;;;;4807897;29;20054;-76
2023/03/27 01:10:32;;;;;;;0.20;0.20;;;;;;;;;;4838320;24;20106;-75
2023/03/27 01:13:11;;;;;;;0.20;0.20;;;;;;;;;;4838648;29;20049;-76
2023/03/27 01:28:46;;;;;;;0.20;0.20;;;;;;;;;;4825984;29;20049;-77
2023/03/27 01:31:31;;;;;;;0.20;0.20;;;;;;;;;;4842705;29;20477;-76
2023/03/27 01:34:28;;;;;;;0.20;0.20;;;;;;;;;;4835158;29;20487;-76
2023/03/27 01:37:13;;;;;;;0.17;0.17;;;;;;;;;;4817924;29;20148;-76
2023/03/27 01:40:06;;;;;;;0.20;0.20;;;;;;;;;;4828670;29;20396;-76
2023/03/27 01:43:04;;;;;;;0.20;0.20;;;;;;;;;;4818479;29;20413;-76
2023/03/27 01:45:49;;;;;;;0.10;0.10;;;;;;;;;;4822736;29;20688;-76
2023/03/27 01:48:16;;;;;;;0.20;0.20;;;;;;;;;;4835179;29;20083;-76
2023/03/27 01:51:04;;;;;;;0.20;0.20;;;;;;;;;;4820867;29;20038;-76
2023/03/27 01:57:01;;;;;;;0.20;0.20;;;;;;;;;;4836479;29;20078;-76
2023/03/27 02:00:16;;;;;;;0.20;0.20;;;;;;;;;;4835173;29;20136;-76
2023/03/27 02:09:46;;;;;;;0.20;0.20;;;;;;;;;;4835566;29;20049;-76
2023/03/27 02:12:41;;;;;;;0.20;0.20;;;;;;;;;;4815825;29;20057;-78
2023/03/27 02:15:38;;;;;;;0.20;0.20;;;;;;;;;;4835859;29;20054;-77
2023/03/27 02:18:08;;;;;;;0.20;0.20;;;;;;;;;;4834333;23;20054;-77
2023/03/27 02:20:43;;;;;;;0.20;0.20;;;;;;;;;;4803795;29;20080;-77
2023/03/27 02:23:14;;;;;;;0.20;0.20;;;;;;;;;;4789862;29;20053;-77
2023/03/27 02:28:33;;;;;;;0.10;0.10;;;;;;;;;;4844613;23;20285;-77
2023/03/27 02:31:08;;;;;;;0.20;0.20;;;;;;;;;;4823190;29;20050;-77
2023/03/27 02:34:07;;;;;;;0.20;0.20;;;;;;;;;;4842627;29;20046;-77
2023/03/27 02:36:48;;;;;;;0.20;0.20;;;;;;;;;;4820297;23;20417;-77
2023/03/27 02:39:18;;;;;;;0.20;0.20;;;;;;;;;;4838606;29;20053;-75
2023/03/27 02:45:12;;;;;;;0.20;0.20;;;;;;;;;;4839805;29;20074;-76
2023/03/27 02:48:11;;;;;;;0.20;0.20;;;;;;;;;;4825543;29;20141;-77
2023/03/27 02:51:11;;;;;;;0.20;0.20;;;;;;;;;;4817950;29;20066;-77
2023/03/27 02:53:59;;;;;;;0.20;0.20;;;;;;;;;;4816375;29;20054;-78
2023/03/27 02:56:33;;;;;;;0.20;0.20;;;;;;;;;;4837963;29;20133;-76
2023/03/27 02:59:05;;;;;;;0.10;0.10;;;;;;;;;;4815963;29;20077;-77
2023/03/27 03:01:44;;;;;;;0.10;0.10;;;;;;;;;;4830333;29;20107;-76
2023/03/27 03:04:40;;;;;;;0.20;0.20;;;;;;;;;;4838710;29;20050;-77
2023/03/27 03:07:26;;;;;;;0.10;0.10;;;;;;;;;;4841444;29;20087;-77
2023/03/27 03:10:00;;;;;;;0.10;0.10;;;;;;;;;;4811146;29;20053;-76
2023/03/27 03:12:36;;;;;;;0.20;0.20;;;;;;;;;;4821036;29;20510;-76
2023/03/27 03:15:02;;;;;;;0.20;0.20;;;;;;;;;;4838952;29;20054;-76
2023/03/27 03:17:28;;;;;;;0.20;0.20;;;;;;;;;;4825673;29;20053;-75
2023/03/27 03:19:54;;;;;;;0.15;0.15;;;;;;;;;;4824468;29;20057;-75
2023/03/27 03:22:20;;;;;;;0.20;0.20;;;;;;;;;;4838614;23;20475;-76
2023/03/27 03:24:52;;;;;;;0.20;0.20;;;;;;;;;;4851891;29;20513;-75
2023/03/27 03:27:40;;;;;;;0.20;0.20;;;;;;;;;;4839547;29;20532;-76
2023/03/27 03:30:17;;;;;;;0.20;0.20;;;;;;;;;;4828592;29;20045;-75
2023/03/27 03:32:49;;;;;;;0.20;0.20;;;;;;;;;;4842665;29;20050;-76
2023/03/27 03:35:15;;;;;;;0.20;0.20;;;;;;;;;;4837612;29;20144;-77
2023/03/27 03:37:49;;;;;;;0.20;0.20;;;;;;;;;;4823478;29;20073;-75
2023/03/27 03:40:19;;;;;;;0.20;0.20;;;;;;;;;;4846890;29;20076;-76
2023/03/27 03:43:10;;;;;;;0.20;0.20;;;;;;;;;;4852426;23;20050;-75
2023/03/27 03:45:45;;;;;;;0.20;0.20;;;;;;;;;;4826487;29;20060;-75
2023/03/27 03:48:23;;;;;;;0.20;0.20;;;;;;;;;;4841723;29;20045;-75
2023/03/27 03:50:50;;;;;;;0.20;0.20;;;;;;;;;;4843608;29;20084;-75
2023/03/27 03:53:30;;;;;;;0.17;0.17;;;;;;;;;;4839839;29;20530;-75
2023/03/27 03:56:08;;;;;;;0.20;0.20;;;;;;;;;;4858544;29;20042;-77
2023/03/27 03:58:44;;;;;;;0.17;0.17;;;;;;;;;;4854224;29;20045;-76
2023/03/27 04:01:22;;;;;;;0.20;0.20;;;;;;;;;;4849068;29;20144;-77
2023/03/27 04:03:57;;;;;;;0.20;0.20;;;;;;;;;;4858653;29;20367;-77
2023/03/27 04:07:16;;;;;;;0.20;0.20;;;;;;;;;;4872830;29;20037;-77
2023/03/27 04:09:36;;;;;;;0.20;0.20;;;;;;;;;;4831792;29;20184;-77
2023/03/27 04:14:49;;;;;;;0.20;0.20;;;;;;;;;;4854406;29;20120;-77
2023/03/27 04:17:25;;;;;;;0.20;0.20;;;;;;;;;;4856818;29;20052;-77
2023/03/27 04:20:06;;;;;;;0.20;0.20;;;;;;;;;;4837969;29;20053;-78
2023/03/27 04:22:36;;;;;;;0.20;0.20;;;;;;;;;;4857183;29;20050;-77
2023/03/27 04:25:22;;;;;;;0.10;0.10;;;;;;;;;;4825001;29;20058;-77
2023/03/27 04:27:55;;;;;;;0.28;0.28;;;;;;;;;;4843324;29;20057;-77
2023/03/27 04:30:37;;;;;;;0.20;0.20;;;;;;;;;;4828207;29;20282;-77
2023/03/27 04:33:03;;;;;;;0.20;0.20;;;;;;;;;;4841622;29;20084;-77
2023/03/27 04:35:35;;;;;;;0.20;0.20;;;;;;;;;;4842091;29;20062;-78
2023/03/27 04:38:18;;;;;;;0.20;0.20;;;;;;;;;;4839918;29;20052;-78
2023/03/27 04:40:51;;;;;;;0.20;0.20;;;;;;;;;;4858664;29;20321;-77
2023/03/27 04:43:17;;;;;;;0.20;0.20;;;;;;;;;;4848672;29;20058;-77
2023/03/27 04:45:58;;;;;;;0.20;0.20;;;;;;;;;;4851516;29;20477;-77
2023/03/27 04:51:35;;;;;;;0.20;0.20;;;;;;;;;;4836212;29;20398;-78
2023/03/27 04:54:03;;;;;;;0.20;0.20;;;;;;;;;;4856925;29;20092;-77
2023/03/27 04:56:52;;;;;;;0.20;0.20;;;;;;;;;;4856697;29;20055;-77
2023/03/27 04:59:24;;;;;;;0.20;0.20;;;;;;;;;;4856238;29;20045;-78
2023/03/27 05:02:15;;;;;;;0.20;0.20;;;;;;;;;;4815722;29;20205;-78
2023/03/27 05:04:41;;;;;;;0.20;0.20;;;;;;;;;;4861628;29;20498;-78
2023/03/27 05:09:43;;;;;;;0.20;0.20;;;;;;;;;;5122263;23;20528;-79
2023/03/27 05:12:37;;;;;;;0.20;0.20;;;;;;;;;;4860361;23;20053;-77
2023/03/27 05:15:22;;;;;;;0.20;0.20;;;;;;;;;;4836381;29;20088;-78
2023/03/27 05:18:14;;;;;;;0.20;0.20;;;;;;;;;;4840192;29;20513;-78
2023/03/27 05:20:49;;;;;;;0.20;0.20;;;;;;;;;;4836342;29;20573;-77
2023/03/27 05:23:16;;;;;;;0.20;0.20;;;;;;;;;;4834617;29;20109;-79
2023/03/27 05:25:55;;;;;;;0.20;0.20;;;;;;;;;;4850832;23;20081;-77
2023/03/27 05:28:21;;;;;;;0.20;0.20;;;;;;;;;;4833924;29;20160;-77
2023/03/27 05:30:54;;;;;;;0.20;0.20;;;;;;;;;;4836117;29;20080;-77
2023/03/27 05:33:31;;;;;;;0.20;0.20;;;;;;;;;;4838072;29;20057;-77
2023/03/27 05:36:04;;;;;;;0.20;0.20;;;;;;;;;;4838782;29;20048;-77
2023/03/27 05:38:31;;;;;;;0.20;0.20;;;;;;;;;;4821895;29;20074;-77
2023/03/27 05:40:59;;;;;;;0.20;0.20;;;;;;;;;;4828009;29;20670;-77
2023/03/27 05:43:28;;;;;;;0.20;0.20;;;;;;;;;;4807733;29;20129;-78
2023/03/27 05:46:07;;;;;;;0.20;0.20;;;;;;;;;;4839620;29;20053;-77
2023/03/27 05:48:37;;;;;;;0.20;0.20;;;;;;;;;;4837374;29;20050;-77
2023/03/27 05:51:09;;;;;;;0.10;0.10;;;;;;;;;;4840850;29;20121;-76
2023/03/27 05:53:38;;;;;;;0.20;0.20;;;;;;;;;;4842151;29;20507;-76
2023/03/27 05:56:22;;;;;;;0.20;0.20;;;;;;;;;;4826225;29;20050;-77
2023/03/27 05:59:03;;;;;;;0.20;0.20;;;;;;;;;;4826582;29;20443;-77
2023/03/27 06:01:38;;;;;;;0.10;0.10;;;;;;;;;;4822324;29;20128;-76
2023/03/27 06:04:19;;;;;;;0.20;0.20;;;;;;;;;;4824646;29;20100;-75
2023/03/27 06:06:51;;;;;;;0.20;0.20;;;;;;;;;;4833693;29;20133;-75
2023/03/27 06:09:17;;;;;;;0.20;0.20;;;;;;;;;;4839400;29;20053;-75
2023/03/27 06:11:47;;;;;;;0.20;0.20;;;;;;;;;;4839538;29;20522;-76
2023/03/27 06:14:13;;;;;;;0.20;0.20;;;;;;;;;;4824437;29;20050;-76
2023/03/27 06:16:51;;;;;;;0.17;0.17;;;;;;;;;;4816097;29;20050;-77
2023/03/27 06:21:56;;;;;;;0.20;0.20;;;;;;;;;;4860583;23;20057;-76
2023/03/27 06:24:22;;;;;;;0.20;0.20;;;;;;;;;;4853316;29;20069;-77
2023/03/27 06:27:03;;;;;;;0.20;0.20;;;;;;;;;;4828072;29;20050;-76
2023/03/27 06:29:38;;;;;;;0.20;0.20;;;;;;;;;;4833345;29;20185;-78
2023/03/27 06:32:13;;;;;;;0.20;0.20;;;;;;;;;;4834525;29;20491;-76
2023/03/27 06:34:42;;;;;;;0.20;0.20;;;;;;;;;;4851341;29;20073;-76
2023/03/27 06:37:11;;;;;;;0.20;0.20;;;;;;;;;;4852311;29;20044;-76
2023/03/27 06:39:49;;;;;;;0.20;0.20;;;;;;;;;;4838959;29;20053;-76
2023/03/27 06:42:16;;;;;;;0.20;0.20;;;;;;;;;;4831799;29;20530;-76
2023/03/27 06:44:48;;;;;;;0.20;0.20;;;;;;;;;;4846405;29;20406;-77
2023/03/27 06:47:20;;;;;;;0.20;0.20;;;;;;;;;;4833275;29;20114;-77
2023/03/27 06:49:55;;;;;;;0.20;0.20;;;;;;;;;;4846801;29;20042;-83
2023/03/27 06:52:22;;;;;;;0.20;0.20;;;;;;;;;;4867094;29;20044;-83
2023/03/27 06:54:48;;;;;;;0.20;0.20;;;;;;;;;;4851596;29;20129;-85
2023/03/27 06:57:17;;;;;;;0.20;0.20;;;;;;;;;;4832791;29;20053;-85
2023/03/27 06:59:52;;;;;;;0.20;0.20;;;;;;;;;;4850228;29;20089;-82
2023/03/27 07:02:31;;;;;;;0.10;0.10;;;;;;;;;;4856145;29;20045;-83
2023/03/27 07:05:03;;;;;;;0.20;0.20;;;;;;;;;;4852392;29;20034;-82
2023/03/27 07:07:29;;;;;;;0.20;0.20;;;;;;;;;;4837811;29;20487;-84
2023/03/27 07:09:57;;;;;;;0.20;0.20;;;;;;;;;;4860149;29;20049;-88
2023/03/27 07:12:24;;;;;;;0.20;0.20;;;;;;;;;;4849382;29;20089;-87
2023/03/27 07:14:59;;;;;;;0.10;0.10;;;;;;;;;;4841942;23;20057;-85
2023/03/27 07:17:26;;;;;;;0.20;0.20;;;;;;;;;;4853577;29;20082;-89
2023/03/27 07:19:55;;;;;;;0.20;0.20;;;;;;;;;;4852136;29;20057;-87
2023/03/27 07:22:22;;;;;;;0.20;0.20;;;;;;;;;;4850676;23;20110;-88
2023/03/27 07:24:54;;;;;;;0.20;0.20;;;;;;;;;;4824054;29;20131;-88
2023/03/27 07:27:22;;;;;;;0.20;0.20;;;;;;;;;;4806969;29;20124;-88
2023/03/27 07:29:48;;;;;;;0.13;0.13;;;;;;;;;;4821833;29;20042;-87
2023/03/27 07:32:15;;;;;;;0.20;0.20;;;;;;;;;;4806392;29;20495;-86
2023/03/27 07:34:54;;;;;;;0.20;0.20;;;;;;;;;;4817309;29;20047;-86
2023/03/27 07:37:21;;;;;;;0.20;0.20;;;;;;;;;;4838184;29;20130;-86
2023/03/27 07:39:50;;;;;;;0.20;0.20;;;;;;;;;;4820923;29;20107;-87
2023/03/27 07:42:16;;;;;;;0.20;0.20;;;;;;;;;;4806665;29;20042;-88
2023/03/27 07:44:45;;;;;;;0.20;0.20;;;;;;;;;;4810545;29;20046;-85
2023/03/27 07:47:20;;;;;;;0.20;0.20;;;;;;;;;;4822416;29;20053;-86
2023/03/27 07:49:46;;;;;;;0.10;0.10;;;;;;;;;;4810826;29;20058;-86
2023/03/27 07:52:12;;;;;;;0.20;0.20;;;;;;;;;;4806880;29;20111;-85
2023/03/27 07:54:38;;;;;;;0.20;0.20;;;;;;;;;;4806404;29;20039;-84
2023/03/27 07:57:04;;;;;;;0.20;0.20;;;;;;;;;;4806270;29;20047;-86
2023/03/27 07:59:31;;;;;;;0.20;0.20;;;;;;;;;;4819169;29;20094;-85
2023/03/27 08:01:57;;;;;;;0.20;0.20;;;;;;;;;;4796001;29;20066;-84
2023/03/27 08:04:23;;;;;;;0.20;0.20;;;;;;;;;;4800987;29;20046;-86
2023/03/27 08:06:53;;;;;;;0.20;0.20;;;;;;;;;;4814752;29;20157;-84
2023/03/27 08:09:19;;;;;;;0.10;0.10;;;;;;;;;;4792624;29;20511;-85
2023/03/27 08:11:49;;;;;;;0.20;0.20;;;;;;;;;;4813562;29;20458;-83
2023/03/27 08:14:15;;;;;;;0.15;0.15;;;;;;;;;;4814968;29;20043;-86
2023/03/27 08:16:41;;;;;;;0.20;0.20;;;;;;;;;;4817740;29;20038;-85
2023/03/27 08:19:08;;;;;;;0.20;0.20;;;;;;;;;;4803843;29;20518;-83
2023/03/27 08:21:34;;;;;;;0.20;0.20;;;;;;;;;;4797085;29;20062;-87
2023/03/27 08:24:03;;;;;;;0.20;0.20;;;;;;;;;;4806359;23;20054;-80
2023/03/27 08:26:31;;;;;;;0.20;0.20;;;;;;;;;;4868142;29;20053;-83
2023/03/27 08:29:21;;;;;;;0.20;0.20;;;;;;;;;;4937046;23;20032;-85
2023/03/27 08:31:47;;;;;;;0.20;0.20;;;;;;;;;;4797491;29;20512;-82
2023/03/27 08:34:13;;;;;;;0.20;0.20;;;;;;;;;;4814039;29;20082;-84
2023/03/27 08:36:40;;;;;;;0.20;0.20;;;;;;;;;;4814689;29;20096;-84
2023/03/27 08:39:06;;;;;;;0.20;0.20;;;;;;;;;;4817877;29;20047;-86
2023/03/27 08:41:41;;;;;;;0.20;0.20;;;;;;;;;;4812070;29;20050;-84
2023/03/27 08:44:11;;;;;;;0.20;0.20;;;;;;;;;;4815517;29;20062;-84
2023/03/27 08:46:40;;;;;;;0.20;0.20;;;;;;;;;;4794957;29;20643;-82
2023/03/27 08:49:11;;;;;;;0.20;0.20;;;;;;;;;;4817618;29;20063;-87
2023/03/27 08:51:52;;;;;;;0.20;0.20;;;;;;;;;;4812190;29;20078;-83
2023/03/27 08:54:18;;;;;;;;;;;;;;;;;;4815959;29;20396;-84
2023/03/27 08:56:45;;;;;;;0.10;0.10;;;;;;;;;;4811309;29;19979;-83
2023/03/27 08:59:15;;;;;;;0.10;0.10;;;;;;;;;;4794795;29;20057;-85
2023/03/27 09:01:45;;;;;;;0.20;0.20;;;;;;;;;;4813017;29;20046;-85
2023/03/27 09:04:44;;;;;;;0.10;0.10;;;;;;;;;;4796307;29;20058;-84
2023/03/27 09:07:30;;;;;;;0.10;0.10;;;;;;;;;;4756829;29;20109;-85
2023/03/27 09:10:18;;;;;;;0.10;0.10;;;;;;;;;;4817461;29;20095;-85
2023/03/27 09:12:55;;;;;;;0.20;0.20;;;;;;;;;;4813040;29;20042;-83
2023/03/27 09:15:31;;;;;;;0.20;0.20;;;;;;;;;;4823404;29;20065;-87
2023/03/27 09:18:05;;;;;;;0.20;0.20;;;;;;;;;;4807435;29;20449;-81
2023/03/27 09:20:42;;;;;;;0.15;0.15;;;;;;;;;;4805026;29;20050;-84
2023/03/27 09:23:27;;;;;;;0.20;0.20;;;;;;;;;;4812369;29;20057;-87
2023/03/27 09:26:25;;;;;;;0.20;0.20;;;;;;;;;;4823823;29;20054;-86
2023/03/27 09:28:57;;;;;;;0.20;0.20;;;;;;;;;;4795509;29;20184;-85
2023/03/27 09:31:23;;;;;;;;;;;;;;;;;;4804306;29;20062;-85
2023/03/27 09:33:50;;;;;;;0.10;0.10;;;;;;;;;;4787310;29;19950;-84
2023/03/27 09:38:57;;;;;;;0.20;0.20;;;;;;;;;;4932825;23;20093;-86
2023/03/27 09:41:46;;;;;;;0.20;0.20;;;;;;;;;;4843072;29;20267;-86
2023/03/27 09:44:34;;;;;;;0.20;0.20;;;;;;;;;;4821545;29;20046;-85
2023/03/27 09:50:30;;;;;;;0.10;0.10;;;;;;;;;;4824190;29;20081;-84
2023/03/27 09:53:13;;;;;;;0.20;0.20;;;;;;;;;;4855897;23;20076;-87
2023/03/27 09:55:59;;;;;;;0.20;0.20;;;;;;;;;;4838312;29;20178;-88
2023/03/27 09:58:56;;;;;;;0.17;0.17;;;;;;;;;;4841246;29;20054;-86
2023/03/27 10:01:46;;;;;;;0.20;0.20;;;;;;;;;;4783253;30;20063;-86
2023/03/27 10:04:22;;;;;;;0.20;0.20;;;;;;;;;;4829289;29;20095;-87
2023/03/27 10:07:01;;;;;;;0.20;0.20;;;;;;;;;;4860567;29;20081;-85
2023/03/27 10:09:27;;;;;;;0.10;0.10;;;;;;;;;;4856765;29;20120;-88
2023/03/27 10:12:19;;;;;;;0.15;0.15;;;;;;;;;;4851427;29;20060;-85
2023/03/27 10:14:57;;;;;;;0.20;0.20;;;;;;;;;;4845039;29;20056;-86
2023/03/27 10:17:29;;;;;;;0.20;0.20;;;;;;;;;;4859866;29;20054;-86
2023/03/27 10:20:17;;;;;;;0.10;0.10;;;;;;;;;;4861461;29;20056;-86
2023/03/27 10:23:02;;;;;;;0.20;0.20;;;;;;;;;;4837668;29;20125;-87
2023/03/27 10:25:33;;;;;;;0.20;0.20;;;;;;;;;;4854791;29;20049;-86
2023/03/27 10:28:12;;;;;;;0.10;0.10;;;;;;;;;;4853466;29;20038;-88
2023/03/27 10:30:44;;;;;;;0.20;0.20;;;;;;;;;;4829310;29;20413;-87
2023/03/27 10:33:10;;;;;;;0.20;0.20;;;;;;;;;;4856314;29;20521;-88
2023/03/27 10:35:43;;;;;;;0.10;0.10;;;;;;;;;;4834948;29;20145;-87
2023/03/27 10:38:28;;;;;;;0.20;0.20;;;;;;;;;;4842494;29;20186;-85
2023/03/27 10:41:14;;;;;;;0.10;0.10;;;;;;;;;;4844052;29;20064;-86
2023/03/27 10:43:41;;;;;;;0.10;0.10;;;;;;;;;;4857481;29;20042;-87
2023/03/27 10:46:25;;;;;;;0.13;0.13;;;;;;;;;;4841292;29;20045;-87
2023/03/27 10:49:19;;;;;;;0.10;0.10;;;;;;;;;;4864636;29;20041;-86
2023/03/27 10:55:31;;;;;;;0.20;0.20;;;;;;;;;;4857309;29;20058;-88
2023/03/27 10:58:26;;;;;;;0.20;0.20;;;;;;;;;;4849506;29;20056;-85
2023/03/27 11:01:27;;;;;;;0.20;0.20;;;;;;;;;;4853656;29;20541;-86
2023/03/27 11:04:25;;;;;;;0.10;0.10;;;;;;;;;;4836115;29;20060;-85
2023/03/27 11:07:07;;;;;;;0.20;0.20;;;;;;;;;;4847113;29;20122;-86
2023/03/27 11:09:38;;;;;;;0.10;0.10;;;;;;;;;;4854335;29;20045;-87
2023/03/27 11:12:24;;;;;;;0.20;0.20;;;;;;;;;;4841213;29;20057;-88
2023/03/27 11:15:09;;;;;;;0.10;0.10;;;;;;;;;;4882451;23;20062;-88
2023/03/27 11:17:57;;;;;;;0.20;0.20;;;;;;;;;;4844340;29;20080;-88
2023/03/27 11:20:59;;;;;;;0.20;0.20;;;;;;;;;;4857913;29;20651;-87
2023/03/27 11:23:40;;;;;;;;;;;;;;;;;;4818382;29;20055;-89
2023/03/27 11:26:14;;;;;;;0.10;0.10;;;;;;;;;;4823809;29;20099;-87
2023/03/27 11:29:15;;;;;;;0.20;0.20;;;;;;;;;;4823830;29;20049;-85
2023/03/27 11:31:56;;;;;;;0.10;0.10;;;;;;;;;;4827444;29;20054;-87
2023/03/27 11:34:49;;;;;;;0.20;0.20;;;;;;;;;;4822600;29;20054;-85
2023/03/27 11:37:28;;;;;;;0.20;0.20;;;;;;;;;;4835759;29;20144;-87
2023/03/27 11:40:09;;;;;;;0.20;0.20;;;;;;;;;;4839606;29;20049;-86
2023/03/27 11:42:53;;;;;;;0.10;0.10;;;;;;;;;;4823252;29;20541;-85
2023/03/27 11:45:34;;;;;;;0.10;0.10;;;;;;;;;;4872742;29;20065;-84
2023/03/27 11:48:09;;;;;;;0.10;0.10;;;;;;;;;;4853158;29;20128;-85
2023/03/27 11:50:38;;;;;;;0.20;0.20;;;;;;;;;;4848472;29;20294;-85
2023/03/27 11:53:33;;;;;;;0.20;0.20;;;;;;;;;;4862446;29;20113;-87
2023/03/27 11:56:33;;;;;;;0.20;0.20;;;;;;;;;;4868305;29;20053;-90
2023/03/27 11:59:40;;;;;;;0.20;0.20;;;;;;;;;;4864120;29;20543;-88
2023/03/27 12:02:22;;;;;;;0.20;0.20;;;;;;;;;;4884365;29;20033;-87
2023/03/27 12:05:13;;;;;;;0.10;0.10;;;;;;;;;;4873169;29;20041;-87
2023/03/27 12:07:41;;;;;;;0.17;0.17;;;;;;;;;;4844112;29;20056;-87
2023/03/27 12:10:26;;;;;;;0.20;0.20;;;;;;;;;;4860140;29;20049;-88
2023/03/27 12:13:11;;;;;;;0.10;0.10;;;;;;;;;;4883248;29;20395;-88
2023/03/27 12:15:56;;;;;;;0.20;0.20;;;;;;;;;;4877619;29;20137;-88
2023/03/27 12:18:56;;;;;;;0.20;0.20;;;;;;;;;;4862186;29;20121;-89
2023/03/27 12:21:43;;;;;;;0.10;0.10;;;;;;;;;;4866317;29;20049;-87
2023/03/27 12:24:55;;;;;;;0.10;0.10;;;;;;;;;;4878220;29;20052;-89
2023/03/27 12:27:24;;;;;;;0.10;0.10;;;;;;;;;;4861180;29;20053;-88
2023/03/27 12:29:57;;;;;;;0.20;0.20;;;;;;;;;;4844435;29;20546;-90
2023/03/27 12:32:58;;;;;;;0.20;0.20;;;;;;;;;;4860836;29;20097;-85
2023/03/27 12:35:39;;;;;;;0.20;0.20;;;;;;;;;;4877174;29;20060;-90
2023/03/27 12:38:28;;;;;;;0.10;0.10;;;;;;;;;;4883569;29;20517;-87
2023/03/27 12:41:14;;;;;;;0.10;0.10;;;;;;;;;;4856488;29;20505;-87
2023/03/27 12:44:00;;;;;;;0.10;0.10;;;;;;;;;;4841954;29;20064;-86
2023/03/27 12:46:46;;;;;;;0.10;0.10;;;;;;;;;;4857886;29;20053;-88
2023/03/27 12:49:42;;;;;;;0.10;0.10;;;;;;;;;;4861067;29;20101;-86
2023/03/27 12:52:09;;;;;;;0.20;0.20;;;;;;;;;;4859428;29;20045;-86
2023/03/27 12:54:37;;;;;;;0.20;0.20;;;;;;;;;;4865346;29;20088;-87
2023/03/27 12:57:19;;;;;;;0.10;0.10;;;;;;;;;;4876348;29;20048;-87
2023/03/27 13:00:09;;;;;;;0.10;0.10;;;;;;;;;;4876852;29;20057;-88
2023/03/27 13:02:47;;;;;;;0.10;0.10;;;;;;;;;;4859092;29;20114;-89
2023/03/27 13:05:22;;;;;;;0.20;0.20;;;;;;;;;;4862584;29;20068;-89
2023/03/27 13:08:13;;;;;;;0.20;0.20;;;;;;;;;;4864017;29;20490;-88
2023/03/27 13:11:03;;;;;;;0.10;0.10;;;;;;;;;;4858479;29;20044;-87
2023/03/27 13:13:51;;;;;;;0.10;0.10;;;;;;;;;;4877194;29;20401;-88
2023/03/27 13:16:39;;;;;;;0.10;0.10;;;;;;;;;;4860494;29;20055;-87
2023/03/27 13:19:34;;;;;;;0.10;0.10;;;;;;;;;;4860277;29;20050;-87
2023/03/27 13:22:22;;;;;;;0.10;0.10;;;;;;;;;;4842491;29;20486;-85
2023/03/27 13:25:06;;;;;;;0.20;0.20;;;;;;;;;;4850174;29;20049;-88
2023/03/27 13:30:43;;;;;;;0.10;0.10;;;;;;;;;;4863898;23;20682;-85
2023/03/27 13:33:15;;;;;;;0.10;0.10;;;;;;;;;;4839602;29;20061;-86
2023/03/27 13:36:09;;;;;;;0.10;0.10;;;;;;;;;;4846454;29;20089;-87
2023/03/27 13:38:47;;;;;;;0.10;0.10;;;;;;;;;;4855268;29;20061;-87
2023/03/27 13:41:31;;;;;;;0.20;0.20;;;;;;;;;;4825167;29;20057;-89
2023/03/27 13:44:00;;;;;;;0.10;0.10;;;;;;;;;;4832505;29;20479;-87
2023/03/27 13:46:28;;;;;;;0.10;0.10;;;;;;;;;;4873325;29;20490;-87
2023/03/27 13:48:54;;;;;;;0.13;0.13;;;;;;;;;;4861506;29;20077;-88
2023/03/27 13:51:38;;;;;;;0.10;0.10;;;;;;;;;;4843052;29;20053;-86
2023/03/27 13:54:07;;;;;;;0.10;0.10;;;;;;;;;;4857894;29;20567;-88
2023/03/27 13:56:33;;;;;;;0.10;0.10;;;;;;;;;;4840989;29;20053;-87
2023/03/27 13:59:18;;;;;;;0.10;0.10;;;;;;;;;;4850158;29;20046;-87
2023/03/27 14:02:03;;;;;;;0.10;0.10;;;;;;;;;;4830369;29;20046;-87
2023/03/27 14:04:38;;;;;;;0.13;0.13;;;;;;;;;;4857951;29;20042;-85
2023/03/27 14:07:06;;;;;;;1.85;0.80;;;;;;;;;;4834768;29;20046;-88
2023/03/27 14:09:34;;;;;;;0.10;0.10;;;;;;;;;;4834325;29;20513;-86
2023/03/27 14:12:03;;;;;;;0.20;0.20;;;;;;;;;;4840377;29;20088;-86
2023/03/27 14:14:37;;;;;;;0.10;0.10;;;;;;;;;;4859921;29;20136;-86
2023/03/27 14:17:11;;;;;;;0.10;0.10;;;;;;;;;;4844461;29;20054;-86
2023/03/27 14:19:37;;;;;;;0.10;0.10;;;;;;;;;;4847336;29;20072;-86
2023/03/27 14:22:09;;;;;;;0.10;0.10;;;;;;;;;;4841325;29;20065;-87
2023/03/27 14:24:38;;;;;;;0.20;0.20;;;;;;;;;;4843789;29;20051;-84
2023/03/27 14:27:06;;;;;;;0.10;0.10;;;;;;;;;;4842726;29;20056;-85
2023/03/27 14:29:33;;;;;;;0.10;0.10;;;;;;;;;;4859217;29;20053;-85
2023/03/27 14:32:06;;;;;;;0.10;0.10;;;;;;;;;;4842153;29;20462;-85
2023/03/27 14:34:33;;;;;;;0.10;0.10;;;;;;;;;;4805465;29;20061;-86
2023/03/27 14:37:21;;;;;;;0.10;0.10;;;;;;;;;;4806285;29;20503;-89
2023/03/27 14:39:52;;;;;;;0.10;0.10;;;;;;;;;;4816528;29;20411;-87
2023/03/27 14:42:19;;;;;;;0.10;0.10;;;;;;;;;;4821501;29;20042;-88
2023/03/27 14:44:57;;;;;;;0.10;0.10;;;;;;;;;;4804260;29;20631;-85
2023/03/27 14:47:23;;;;;;;0.20;0.20;;;;;;;;;;4806046;29;20076;-85
2023/03/27 14:49:57;;;;;;;0.13;0.13;;;;;;;;;;4822475;29;20465;-86
2023/03/27 14:52:29;;;;;;;0.10;0.10;;;;;;;;;;4804639;29;20065;-88
2023/03/27 14:55:00;;;;;;;0.20;0.20;;;;;;;;;;4822025;29;20271;-85
2023/03/27 14:57:27;;;;;;;0.20;0.20;;;;;;;;;;4804651;29;20504;-85
2023/03/27 14:59:53;;;;;;;0.17;0.17;;;;;;;;;;4824047;29;20042;-85
2023/03/27 15:02:21;;;;;;;0.10;0.10;;;;;;;;;;4823553;29;20042;-86
2023/03/27 15:05:13;;;;;;;0.10;0.10;;;;;;;;;;4820580;29;20046;-88
2023/03/27 15:07:43;;;;;;;0.10;0.10;;;;;;;;;;4823416;29;20054;-86
2023/03/27 15:10:21;;;;;;;0.10;0.10;;;;;;;;;;4821731;29;20145;-86
2023/03/27 15:12:47;;;;;;;0.10;0.10;;;;;;;;;;4819793;29;20057;-86
2023/03/27 15:15:33;;;;;;;0.10;0.10;;;;;;;;;;4807164;29;20098;-85
2023/03/27 15:18:04;;;;;;;0.10;0.10;;;;;;;;;;4806067;29;20119;-86
2023/03/27 15:20:33;;;;;;;0.20;0.20;;;;;;;;;;4805202;29;20102;-86
2023/03/27 15:23:02;;;;;;;0.10;0.10;;;;;;;;;;4819601;29;20369;-87
2023/03/27 15:25:37;;;;;;;0.10;0.10;;;;;;;;;;4821200;29;20046;-87
2023/03/27 15:28:06;;;;;;;0.10;0.10;;;;;;;;;;4803869;29;20042;-86
2023/03/27 15:30:43;;;;;;;0.10;0.10;;;;;;;;;;4826612;29;20042;-86
2023/03/27 15:33:16;;;;;;;0.15;0.15;;;;;;;;;;4839618;29;20050;-87
2023/03/27 15:35:44;;;;;;;0.15;0.15;;;;;;;;;;4820885;29;20054;-86
2023/03/27 15:38:14;;;;;;;0.10;0.10;;;;;;;;;;4820696;29;20125;-89
2023/03/27 15:40:41;;;;;;;0.20;0.20;;;;;;;;;;4805487;29;20079;-84
2023/03/27 15:43:15;;;;;;;0.10;0.10;;;;;;;;;;4808690;29;20079;-85
2023/03/27 15:46:00;;;;;;;0.10;0.10;;;;;;;;;;4820264;29;20053;-87
2023/03/27 15:48:31;;;;;;;0.20;0.20;;;;;;;;;;4816854;29;20054;-84
2023/03/27 15:51:00;;;;;;;0.20;0.20;;;;;;;;;;4814734;29;20073;-88
2023/03/27 15:53:31;;;;;;;0.20;0.20;;;;;;;;;;4811098;29;20105;-78
2023/03/27 15:56:05;;;;;;;0.20;0.20;;;;;;;;;;4795087;29;20055;-80
2023/03/27 15:58:50;;;;;;;0.10;0.10;;;;;;;;;;4807855;29;20439;-78
2023/03/27 16:01:18;;;;;;;0.10;0.10;;;;;;;;;;4815372;29;20129;-79
2023/03/27 16:06:12;;;;;;;0.17;0.17;;;;;;;;;;4856366;23;20499;-77
2023/03/27 16:08:41;;;;;;;0.20;0.20;;;;;;;;;;4852044;29;20545;-80
2023/03/27 16:11:10;;;;;;;0.20;0.20;;;;;;;;;;4853869;29;20061;-79
2023/03/27 16:13:42;;;;;;;0.10;0.10;;;;;;;;;;4834889;29;20045;-78
2023/03/27 16:16:20;;;;;;;0.13;0.13;;;;;;;;;;4852743;29;20072;-77
2023/03/27 16:18:50;;;;;;;0.20;0.20;;;;;;;;;;4844524;29;20082;-78
2023/03/27 16:21:19;;;;;;;0.17;0.17;;;;;;;;;;4854214;29;20061;-79
2023/03/27 16:23:45;;;;;;;0.17;0.17;;;;;;;;;;4917124;23;20053;-77
2023/03/27 16:26:15;;;;;;;0.20;0.20;;;;;;;;;;4872362;29;20334;-77
2023/03/27 16:28:42;;;;;;;0.20;0.20;;;;;;;;;;4853954;29;20497;-76
2023/03/27 16:34:50;;;;;;;0.20;0.20;;;;;;;;;;4821496;29;20095;-78
2023/03/27 16:37:26;;;;;;;0.20;0.20;;;;;;;;;;4804409;29;20057;-78
2023/03/27 16:43:32;;;;;;;0.10;0.10;;;;;;;;;;4830015;29;20098;-79
2023/03/27 16:45:58;;;;;;;0.10;0.10;;;;;;;;;;4822734;29;20387;-80
2023/03/27 16:48:33;;;;;;;0.10;0.10;;;;;;;;;;4813236;29;20088;-78
2023/03/27 16:51:09;;;;;;;0.20;0.20;;;;;;;;;;4821673;29;20473;-79
2023/03/27 16:53:35;;;;;;;0.20;0.20;;;;;;;;;;4817653;29;20046;-78